sensor_id;sensor_type;location;lat;lon;timestamp;temperature;humidity
6375;DHT22;35400;45.472;-122.822;2023-05-25T00:00:59;22.80;98.30
6375;DHT22;35400;45.472;-122.822;2023-05-25T00:03:26;22.70;98.30
6375;DHT22;35400;45.472;-122.822;2023-05-25T00:05:53;22.70;98.40
6375;DHT22;35400;45.472;-122.822;2023-05-25T00:08:19;22.70;97.90
6375;DHT22;35400;45.472;-122.822;2023-05-25T00:10:46;22.60;98.00
6375;DHT22;35400;45.472;-122.822;2023-05-25T00:13:13;22.50;97.20
6375;DHT22;35400;45.472;-122.822;2023-05-25T00:15:40;22.50;97.40
6375;DHT22;35400;45.472;-122.822;2023-05-25T00:18:07;22.60;97.30
6375;DHT22;35400;45.472;-122.822;2023-05-25T00:20:34;22.50;97.40
6375;DHT22;35400;45.472;-122.822;2023-05-25T00:23:01;22.50;97.30
6375;DHT22;35400;45.472;-122.822;2023-05-25T00:25:28;22.50;97.60
6375;DHT22;35400;45.472;-122.822;2023-05-25T00:27:54;22.50;97.90
6375;DHT22;35400;45.472;-122.822;2023-05-25T00:30:21;22.60;96.20
6375;DHT22;35400;45.472;-122.822;2023-05-25T00:35:16;22.30;94.40
6375;DHT22;35400;45.472;-122.822;2023-05-25T00:37:44;22.40;94.70
6375;DHT22;35400;45.472;-122.822;2023-05-25T00:40:14;22.40;97.50
6375;DHT22;35400;45.472;-122.822;2023-05-25T00:42:43;22.30;97.90
6375;DHT22;35400;45.472;-122.822;2023-05-25T00:45:10;22.20;98.30
6375;DHT22;35400;45.472;-122.822;2023-05-25T00:47:38;22.30;94.70
6375;DHT22;35400;45.472;-122.822;2023-05-25T00:50:08;22.30;93.80
6375;DHT22;35400;45.472;-122.822;2023-05-25T00:52:36;22.30;94.00
6375;DHT22;35400;45.472;-122.822;2023-05-25T00:55:03;22.30;94.40
6375;DHT22;35400;45.472;-122.822;2023-05-25T00:57:33;22.20;94.20
6375;DHT22;35400;45.472;-122.822;2023-05-25T01:00:04;22.20;95.30
6375;DHT22;35400;45.472;-122.822;2023-05-25T01:02:39;22.20;94.60
6375;DHT22;35400;45.472;-122.822;2023-05-25T01:05:08;22.20;93.90
6375;DHT22;35400;45.472;-122.822;2023-05-25T01:07:38;22.10;93.20
6375;DHT22;35400;45.472;-122.822;2023-05-25T01:10:09;22.10;93.80
6375;DHT22;35400;45.472;-122.822;2023-05-25T01:12:38;22.00;94.00
6375;DHT22;35400;45.472;-122.822;2023-05-25T01:15:06;22.00;94.60
6375;DHT22;35400;45.472;-122.822;2023-05-25T01:17:34;22.00;95.90
6375;DHT22;35400;45.472;-122.822;2023-05-25T01:20:05;22.00;92.40
6375;DHT22;35400;45.472;-122.822;2023-05-25T01:23:18;22.10;92.80
6375;DHT22;35400;45.472;-122.822;2023-05-25T01:25:50;21.90;93.00
6375;DHT22;35400;45.472;-122.822;2023-05-25T01:28:27;21.90;93.00
6375;DHT22;35400;45.472;-122.822;2023-05-25T01:30:56;21.80;93.10
6375;DHT22;35400;45.472;-122.822;2023-05-25T01:33:24;21.80;93.50
6375;DHT22;35400;45.472;-122.822;2023-05-25T01:35:51;21.80;94.30
6375;DHT22;35400;45.472;-122.822;2023-05-25T01:38:18;23.00;95.00
6375;DHT22;35400;45.472;-122.822;2023-05-25T01:40:46;21.80;95.20
6375;DHT22;35400;45.472;-122.822;2023-05-25T01:43:12;21.80;96.10
6375;DHT22;35400;45.472;-122.822;2023-05-25T01:45:39;21.80;94.40
6375;DHT22;35400;45.472;-122.822;2023-05-25T01:48:29;21.80;94.20
6375;DHT22;35400;45.472;-122.822;2023-05-25T01:51:06;21.70;93.80
6375;DHT22;35400;45.472;-122.822;2023-05-25T01:53:44;21.70;93.90
6375;DHT22;35400;45.472;-122.822;2023-05-25T01:56:15;21.60;94.20
6375;DHT22;35400;45.472;-122.822;2023-05-25T01:58:44;21.60;94.30
6375;DHT22;35400;45.472;-122.822;2023-05-25T02:01:14;21.60;94.40
6375;DHT22;35400;45.472;-122.822;2023-05-25T02:03:43;21.50;94.60
6375;DHT22;35400;45.472;-122.822;2023-05-25T02:06:15;21.50;95.20
6375;DHT22;35400;45.472;-122.822;2023-05-25T02:08:42;21.50;95.30
6375;DHT22;35400;45.472;-122.822;2023-05-25T02:11:12;21.40;95.50
6375;DHT22;35400;45.472;-122.822;2023-05-25T02:13:40;21.40;95.80
6375;DHT22;35400;45.472;-122.822;2023-05-25T02:16:07;21.30;96.40
6375;DHT22;35400;45.472;-122.822;2023-05-25T02:18:34;21.30;96.80
6375;DHT22;35400;45.472;-122.822;2023-05-25T02:21:01;21.20;98.00
6375;DHT22;35400;45.472;-122.822;2023-05-25T02:23:28;21.20;96.50
6375;DHT22;35400;45.472;-122.822;2023-05-25T02:25:55;21.20;96.50
6375;DHT22;35400;45.472;-122.822;2023-05-25T02:28:23;21.20;97.00
6375;DHT22;35400;45.472;-122.822;2023-05-25T02:30:51;21.10;97.10
6375;DHT22;35400;45.472;-122.822;2023-05-25T02:33:18;21.10;97.40
6375;DHT22;35400;45.472;-122.822;2023-05-25T02:35:45;21.10;96.80
6375;DHT22;35400;45.472;-122.822;2023-05-25T02:38:13;21.00;97.60
6375;DHT22;35400;45.472;-122.822;2023-05-25T02:40:40;21.00;96.40
6375;DHT22;35400;45.472;-122.822;2023-05-25T02:43:06;20.90;96.20
6375;DHT22;35400;45.472;-122.822;2023-05-25T02:45:33;20.90;96.20
6375;DHT22;35400;45.472;-122.822;2023-05-25T02:48:00;20.80;95.90
6375;DHT22;35400;45.472;-122.822;2023-05-25T02:50:28;20.70;96.00
6375;DHT22;35400;45.472;-122.822;2023-05-25T02:52:56;20.70;96.00
6375;DHT22;35400;45.472;-122.822;2023-05-25T02:55:23;20.60;96.10
6375;DHT22;35400;45.472;-122.822;2023-05-25T02:57:51;20.60;96.20
6375;DHT22;35400;45.472;-122.822;2023-05-25T03:00:34;20.60;96.20
6375;DHT22;35400;45.472;-122.822;2023-05-25T03:03:01;20.50;96.30
6375;DHT22;35400;45.472;-122.822;2023-05-25T03:05:28;20.50;96.40
6375;DHT22;35400;45.472;-122.822;2023-05-25T03:07:55;20.40;96.40
6375;DHT22;35400;45.472;-122.822;2023-05-25T03:10:22;20.40;96.80
6375;DHT22;35400;45.472;-122.822;2023-05-25T03:12:49;20.40;96.90
6375;DHT22;35400;45.472;-122.822;2023-05-25T03:15:16;20.40;97.10
6375;DHT22;35400;45.472;-122.822;2023-05-25T03:17:42;20.30;97.20
6375;DHT22;35400;45.472;-122.822;2023-05-25T03:20:10;20.30;97.80
6375;DHT22;35400;45.472;-122.822;2023-05-25T03:22:41;20.30;97.90
6375;DHT22;35400;45.472;-122.822;2023-05-25T03:25:09;20.20;98.10
6375;DHT22;35400;45.472;-122.822;2023-05-25T03:27:38;20.20;98.50
6375;DHT22;35400;45.472;-122.822;2023-05-25T03:30:07;20.10;98.70
6375;DHT22;35400;45.472;-122.822;2023-05-25T03:32:34;20.10;99.00
6375;DHT22;35400;45.472;-122.822;2023-05-25T03:35:03;20.10;99.20
6375;DHT22;35400;45.472;-122.822;2023-05-25T03:37:30;20.00;99.40
6375;DHT22;35400;45.472;-122.822;2023-05-25T03:39:58;19.90;99.60
6375;DHT22;35400;45.472;-122.822;2023-05-25T03:42:24;19.90;99.70
6375;DHT22;35400;45.472;-122.822;2023-05-25T03:44:51;19.80;99.90
6375;DHT22;35400;45.472;-122.822;2023-05-25T03:47:18;19.80;99.90
6375;DHT22;35400;45.472;-122.822;2023-05-25T03:49:45;19.70;99.10
6375;DHT22;35400;45.472;-122.822;2023-05-25T03:52:12;19.70;99.20
6375;DHT22;35400;45.472;-122.822;2023-05-25T03:54:39;19.60;99.30
6375;DHT22;35400;45.472;-122.822;2023-05-25T03:57:06;19.60;99.20
6375;DHT22;35400;45.472;-122.822;2023-05-25T03:59:33;19.50;99.20
6375;DHT22;35400;45.472;-122.822;2023-05-25T04:01:59;19.50;99.20
6375;DHT22;35400;45.472;-122.822;2023-05-25T04:04:27;19.40;99.20
6375;DHT22;35400;45.472;-122.822;2023-05-25T04:06:55;19.40;99.30
6375;DHT22;35400;45.472;-122.822;2023-05-25T04:09:22;19.30;99.40
6375;DHT22;35400;45.472;-122.822;2023-05-25T04:11:48;19.30;99.60
6375;DHT22;35400;45.472;-122.822;2023-05-25T04:14:15;19.20;99.60
6375;DHT22;35400;45.472;-122.822;2023-05-25T04:16:42;19.20;99.80
6375;DHT22;35400;45.472;-122.822;2023-05-25T04:19:12;19.10;99.70
6375;DHT22;35400;45.472;-122.822;2023-05-25T04:21:39;19.10;99.90
6375;DHT22;35400;45.472;-122.822;2023-05-25T04:24:06;19.00;99.90
6375;DHT22;35400;45.472;-122.822;2023-05-25T04:26:33;19.00;99.90
6375;DHT22;35400;45.472;-122.822;2023-05-25T04:29:02;18.90;99.90
6375;DHT22;35400;45.472;-122.822;2023-05-25T04:31:49;18.90;99.90
6375;DHT22;35400;45.472;-122.822;2023-05-25T04:34:33;18.80;99.90
6375;DHT22;35400;45.472;-122.822;2023-05-25T04:37:16;18.80;99.90
6375;DHT22;35400;45.472;-122.822;2023-05-25T04:39:44;18.70;99.90
6375;DHT22;35400;45.472;-122.822;2023-05-25T04:42:11;18.70;99.90
6375;DHT22;35400;45.472;-122.822;2023-05-25T04:44:38;18.60;99.90
6375;DHT22;35400;45.472;-122.822;2023-05-25T04:47:06;18.60;99.90
6375;DHT22;35400;45.472;-122.822;2023-05-25T04:49:33;18.50;99.90
6375;DHT22;35400;45.472;-122.822;2023-05-25T04:52:00;18.40;99.90
6375;DHT22;35400;45.472;-122.822;2023-05-25T04:54:29;18.40;99.90
6375;DHT22;35400;45.472;-122.822;2023-05-25T04:56:58;18.30;99.90
6375;DHT22;35400;45.472;-122.822;2023-05-25T04:59:25;18.20;99.90
6375;DHT22;35400;45.472;-122.822;2023-05-25T05:01:52;18.20;99.90
6375;DHT22;35400;45.472;-122.822;2023-05-25T05:04:19;18.20;99.90
6375;DHT22;35400;45.472;-122.822;2023-05-25T05:06:47;18.00;99.90
6375;DHT22;35400;45.472;-122.822;2023-05-25T05:09:19;18.00;99.90
6375;DHT22;35400;45.472;-122.822;2023-05-25T05:11:47;17.90;99.90
6375;DHT22;35400;45.472;-122.822;2023-05-25T05:14:14;17.80;99.90
6375;DHT22;35400;45.472;-122.822;2023-05-25T05:16:44;17.70;99.90
6375;DHT22;35400;45.472;-122.822;2023-05-25T05:19:11;17.70;99.90
6375;DHT22;35400;45.472;-122.822;2023-05-25T05:21:38;17.60;99.90
6375;DHT22;35400;45.472;-122.822;2023-05-25T05:24:06;17.60;99.90
6375;DHT22;35400;45.472;-122.822;2023-05-25T05:26:33;17.50;99.90
6375;DHT22;35400;45.472;-122.822;2023-05-25T05:29:00;17.40;99.90
6375;DHT22;35400;45.472;-122.822;2023-05-25T05:31:27;17.40;99.90
6375;DHT22;35400;45.472;-122.822;2023-05-25T05:33:54;17.30;99.90
6375;DHT22;35400;45.472;-122.822;2023-05-25T05:36:21;17.30;99.90
6375;DHT22;35400;45.472;-122.822;2023-05-25T05:38:49;17.20;99.90
6375;DHT22;35400;45.472;-122.822;2023-05-25T05:41:16;17.20;99.90
6375;DHT22;35400;45.472;-122.822;2023-05-25T05:43:48;17.10;99.90
6375;DHT22;35400;45.472;-122.822;2023-05-25T05:46:14;17.00;99.90
6375;DHT22;35400;45.472;-122.822;2023-05-25T05:48:41;17.00;99.90
6375;DHT22;35400;45.472;-122.822;2023-05-25T05:51:09;16.90;99.90
6375;DHT22;35400;45.472;-122.822;2023-05-25T05:53:37;16.90;99.90
6375;DHT22;35400;45.472;-122.822;2023-05-25T05:56:04;16.80;99.90
6375;DHT22;35400;45.472;-122.822;2023-05-25T05:58:32;16.80;99.90
6375;DHT22;35400;45.472;-122.822;2023-05-25T06:00:59;16.70;99.90
6375;DHT22;35400;45.472;-122.822;2023-05-25T06:03:27;16.70;99.90
6375;DHT22;35400;45.472;-122.822;2023-05-25T06:05:54;16.60;99.90
6375;DHT22;35400;45.472;-122.822;2023-05-25T06:08:21;16.60;99.90
6375;DHT22;35400;45.472;-122.822;2023-05-25T06:10:49;16.50;99.90
6375;DHT22;35400;45.472;-122.822;2023-05-25T06:13:16;16.50;99.90
6375;DHT22;35400;45.472;-122.822;2023-05-25T06:15:44;16.40;99.90
6375;DHT22;35400;45.472;-122.822;2023-05-25T06:18:16;16.30;99.90
6375;DHT22;35400;45.472;-122.822;2023-05-25T06:20:43;16.30;99.90
6375;DHT22;35400;45.472;-122.822;2023-05-25T06:23:09;16.20;99.90
6375;DHT22;35400;45.472;-122.822;2023-05-25T06:25:39;16.20;99.90
6375;DHT22;35400;45.472;-122.822;2023-05-25T06:28:07;16.10;99.90
6375;DHT22;35400;45.472;-122.822;2023-05-25T06:30:33;16.10;99.90
6375;DHT22;35400;45.472;-122.822;2023-05-25T06:33:01;16.00;99.90
6375;DHT22;35400;45.472;-122.822;2023-05-25T06:35:28;16.00;99.90
6375;DHT22;35400;45.472;-122.822;2023-05-25T06:37:56;15.90;99.90
6375;DHT22;35400;45.472;-122.822;2023-05-25T06:40:22;15.90;99.90
6375;DHT22;35400;45.472;-122.822;2023-05-25T06:42:50;15.80;99.90
6375;DHT22;35400;45.472;-122.822;2023-05-25T06:45:37;15.80;99.90
6375;DHT22;35400;45.472;-122.822;2023-05-25T06:48:04;15.80;99.90
6375;DHT22;35400;45.472;-122.822;2023-05-25T06:50:31;15.70;99.90
6375;DHT22;35400;45.472;-122.822;2023-05-25T06:52:58;15.60;99.90
6375;DHT22;35400;45.472;-122.822;2023-05-25T06:55:24;15.60;99.90
6375;DHT22;35400;45.472;-122.822;2023-05-25T06:57:52;15.50;99.90
6375;DHT22;35400;45.472;-122.822;2023-05-25T07:00:19;15.50;99.90
6375;DHT22;35400;45.472;-122.822;2023-05-25T07:02:46;15.40;99.90
6375;DHT22;35400;45.472;-122.822;2023-05-25T07:05:13;15.40;99.90
6375;DHT22;35400;45.472;-122.822;2023-05-25T07:07:40;15.40;99.90
6375;DHT22;35400;45.472;-122.822;2023-05-25T07:10:07;15.30;99.90
6375;DHT22;35400;45.472;-122.822;2023-05-25T07:12:34;15.20;99.90
6375;DHT22;35400;45.472;-122.822;2023-05-25T07:15:01;15.20;99.90
6375;DHT22;35400;45.472;-122.822;2023-05-25T07:17:28;15.20;99.90
6375;DHT22;35400;45.472;-122.822;2023-05-25T07:19:56;15.10;99.90
6375;DHT22;35400;45.472;-122.822;2023-05-25T07:22:24;15.10;99.90
6375;DHT22;35400;45.472;-122.822;2023-05-25T07:24:51;15.00;99.90
6375;DHT22;35400;45.472;-122.822;2023-05-25T07:27:18;15.00;99.90
6375;DHT22;35400;45.472;-122.822;2023-05-25T07:29:45;14.90;99.90
6375;DHT22;35400;45.472;-122.822;2023-05-25T07:32:12;14.90;99.90
6375;DHT22;35400;45.472;-122.822;2023-05-25T07:34:38;14.90;99.90
6375;DHT22;35400;45.472;-122.822;2023-05-25T07:37:05;14.80;99.90
6375;DHT22;35400;45.472;-122.822;2023-05-25T07:39:32;14.70;99.90
6375;DHT22;35400;45.472;-122.822;2023-05-25T07:41:59;14.70;99.90
6375;DHT22;35400;45.472;-122.822;2023-05-25T07:44:27;14.60;99.90
6375;DHT22;35400;45.472;-122.822;2023-05-25T07:46:55;14.60;99.90
6375;DHT22;35400;45.472;-122.822;2023-05-25T07:49:22;14.50;99.90
6375;DHT22;35400;45.472;-122.822;2023-05-25T07:51:49;14.50;99.90
6375;DHT22;35400;45.472;-122.822;2023-05-25T07:54:16;14.50;99.90
6375;DHT22;35400;45.472;-122.822;2023-05-25T07:56:42;14.40;99.90
6375;DHT22;35400;45.472;-122.822;2023-05-25T07:59:09;14.40;99.90
6375;DHT22;35400;45.472;-122.822;2023-05-25T08:01:36;14.40;99.90
6375;DHT22;35400;45.472;-122.822;2023-05-25T08:04:04;14.30;99.90
6375;DHT22;35400;45.472;-122.822;2023-05-25T08:06:31;14.20;99.90
6375;DHT22;35400;45.472;-122.822;2023-05-25T08:08:57;14.20;99.90
6375;DHT22;35400;45.472;-122.822;2023-05-25T08:11:24;14.20;99.90
6375;DHT22;35400;45.472;-122.822;2023-05-25T08:13:51;14.10;99.90
6375;DHT22;35400;45.472;-122.822;2023-05-25T08:16:18;14.10;99.90
6375;DHT22;35400;45.472;-122.822;2023-05-25T08:18:45;14.00;99.90
6375;DHT22;35400;45.472;-122.822;2023-05-25T08:21:12;14.00;99.90
6375;DHT22;35400;45.472;-122.822;2023-05-25T08:23:40;13.90;99.90
6375;DHT22;35400;45.472;-122.822;2023-05-25T08:26:08;13.90;99.90
6375;DHT22;35400;45.472;-122.822;2023-05-25T08:28:36;13.90;99.90
6375;DHT22;35400;45.472;-122.822;2023-05-25T08:31:04;13.80;99.90
6375;DHT22;35400;45.472;-122.822;2023-05-25T08:33:30;13.80;99.90
6375;DHT22;35400;45.472;-122.822;2023-05-25T08:35:57;13.80;99.90
6375;DHT22;35400;45.472;-122.822;2023-05-25T08:38:24;13.70;99.90
6375;DHT22;35400;45.472;-122.822;2023-05-25T08:41:18;13.70;99.90
6375;DHT22;35400;45.472;-122.822;2023-05-25T08:43:45;13.60;99.90
6375;DHT22;35400;45.472;-122.822;2023-05-25T08:46:12;13.60;99.90
6375;DHT22;35400;45.472;-122.822;2023-05-25T08:48:40;13.60;99.90
6375;DHT22;35400;45.472;-122.822;2023-05-25T08:51:10;13.50;99.90
6375;DHT22;35400;45.472;-122.822;2023-05-25T08:53:40;13.50;99.90
6375;DHT22;35400;45.472;-122.822;2023-05-25T08:56:16;13.40;99.90
6375;DHT22;35400;45.472;-122.822;2023-05-25T08:59:13;13.40;99.90
6375;DHT22;35400;45.472;-122.822;2023-05-25T09:01:40;13.30;99.90
6375;DHT22;35400;45.472;-122.822;2023-05-25T09:04:10;13.30;99.90
6375;DHT22;35400;45.472;-122.822;2023-05-25T09:06:39;13.20;99.90
6375;DHT22;35400;45.472;-122.822;2023-05-25T09:09:07;13.20;99.90
6375;DHT22;35400;45.472;-122.822;2023-05-25T09:11:34;13.20;99.90
6375;DHT22;35400;45.472;-122.822;2023-05-25T09:14:02;13.10;99.90
6375;DHT22;35400;45.472;-122.822;2023-05-25T09:16:30;13.00;99.90
6375;DHT22;35400;45.472;-122.822;2023-05-25T09:18:58;13.00;99.90
6375;DHT22;35400;45.472;-122.822;2023-05-25T09:21:25;12.90;99.90
6375;DHT22;35400;45.472;-122.822;2023-05-25T09:23:52;12.90;99.90
6375;DHT22;35400;45.472;-122.822;2023-05-25T09:26:19;12.90;99.90
6375;DHT22;35400;45.472;-122.822;2023-05-25T09:28:46;12.90;99.90
6375;DHT22;35400;45.472;-122.822;2023-05-25T09:31:16;12.80;99.90
6375;DHT22;35400;45.472;-122.822;2023-05-25T09:33:44;12.80;99.90
6375;DHT22;35400;45.472;-122.822;2023-05-25T09:36:12;12.70;99.90
6375;DHT22;35400;45.472;-122.822;2023-05-25T09:38:40;12.70;99.90
6375;DHT22;35400;45.472;-122.822;2023-05-25T09:41:07;12.60;99.90
6375;DHT22;35400;45.472;-122.822;2023-05-25T09:43:35;12.60;99.90
6375;DHT22;35400;45.472;-122.822;2023-05-25T09:46:02;12.50;99.90
6375;DHT22;35400;45.472;-122.822;2023-05-25T09:48:29;12.50;99.90
6375;DHT22;35400;45.472;-122.822;2023-05-25T09:50:56;12.40;99.90
6375;DHT22;35400;45.472;-122.822;2023-05-25T09:53:23;12.40;99.90
6375;DHT22;35400;45.472;-122.822;2023-05-25T09:55:51;12.40;99.90
6375;DHT22;35400;45.472;-122.822;2023-05-25T09:58:18;12.30;99.90
6375;DHT22;35400;45.472;-122.822;2023-05-25T10:00:45;12.30;99.90
6375;DHT22;35400;45.472;-122.822;2023-05-25T10:03:14;12.20;99.90
6375;DHT22;35400;45.472;-122.822;2023-05-25T10:05:41;12.20;99.90
6375;DHT22;35400;45.472;-122.822;2023-05-25T10:08:09;12.10;99.90
6375;DHT22;35400;45.472;-122.822;2023-05-25T10:10:37;12.10;99.90
6375;DHT22;35400;45.472;-122.822;2023-05-25T10:13:07;12.10;99.90
6375;DHT22;35400;45.472;-122.822;2023-05-25T10:15:36;12.00;99.90
6375;DHT22;35400;45.472;-122.822;2023-05-25T10:18:06;12.00;99.90
6375;DHT22;35400;45.472;-122.822;2023-05-25T10:20:34;11.90;99.90
6375;DHT22;35400;45.472;-122.822;2023-05-25T10:23:13;11.90;99.90
6375;DHT22;35400;45.472;-122.822;2023-05-25T10:25:45;11.80;99.90
6375;DHT22;35400;45.472;-122.822;2023-05-25T10:28:28;11.80;99.90
6375;DHT22;35400;45.472;-122.822;2023-05-25T10:30:58;11.80;99.90
6375;DHT22;35400;45.472;-122.822;2023-05-25T10:33:25;11.70;99.90
6375;DHT22;35400;45.472;-122.822;2023-05-25T10:35:53;11.70;99.90
6375;DHT22;35400;45.472;-122.822;2023-05-25T10:38:21;11.60;99.90
6375;DHT22;35400;45.472;-122.822;2023-05-25T10:40:50;11.60;99.90
6375;DHT22;35400;45.472;-122.822;2023-05-25T10:43:18;11.60;99.90
6375;DHT22;35400;45.472;-122.822;2023-05-25T10:45:47;11.50;99.90
6375;DHT22;35400;45.472;-122.822;2023-05-25T10:48:15;11.50;99.90
6375;DHT22;35400;45.472;-122.822;2023-05-25T10:50:49;11.40;99.90
6375;DHT22;35400;45.472;-122.822;2023-05-25T10:53:19;11.40;99.90
6375;DHT22;35400;45.472;-122.822;2023-05-25T10:56:04;11.40;99.90
6375;DHT22;35400;45.472;-122.822;2023-05-25T10:58:33;11.40;99.90
6375;DHT22;35400;45.472;-122.822;2023-05-25T11:01:10;11.30;99.90
6375;DHT22;35400;45.472;-122.822;2023-05-25T11:06:14;11.30;99.90
6375;DHT22;35400;45.472;-122.822;2023-05-25T11:08:53;11.20;99.90
6375;DHT22;35400;45.472;-122.822;2023-05-25T11:11:21;11.20;99.90
6375;DHT22;35400;45.472;-122.822;2023-05-25T11:17:07;11.10;99.90
6375;DHT22;35400;45.472;-122.822;2023-05-25T11:22:20;11.10;99.90
6375;DHT22;35400;45.472;-122.822;2023-05-25T11:24:52;11.00;99.90
6375;DHT22;35400;45.472;-122.822;2023-05-25T11:27:22;11.00;99.90
6375;DHT22;35400;45.472;-122.822;2023-05-25T11:29:50;11.00;99.90
6375;DHT22;35400;45.472;-122.822;2023-05-25T11:32:18;11.00;99.90
6375;DHT22;35400;45.472;-122.822;2023-05-25T11:34:53;10.90;99.90
6375;DHT22;35400;45.472;-122.822;2023-05-25T11:37:22;10.90;99.90
6375;DHT22;35400;45.472;-122.822;2023-05-25T11:39:54;10.90;99.90
6375;DHT22;35400;45.472;-122.822;2023-05-25T11:42:22;10.90;99.90
6375;DHT22;35400;45.472;-122.822;2023-05-25T11:44:49;10.80;99.90
6375;DHT22;35400;45.472;-122.822;2023-05-25T11:47:19;10.80;99.90
6375;DHT22;35400;45.472;-122.822;2023-05-25T11:49:48;10.70;99.90
6375;DHT22;35400;45.472;-122.822;2023-05-25T11:52:18;10.70;99.90
6375;DHT22;35400;45.472;-122.822;2023-05-25T11:54:47;10.70;99.90
6375;DHT22;35400;45.472;-122.822;2023-05-25T11:57:22;10.70;99.90
6375;DHT22;35400;45.472;-122.822;2023-05-25T11:59:56;10.70;99.90
6375;DHT22;35400;45.472;-122.822;2023-05-25T12:02:25;10.60;99.90
6375;DHT22;35400;45.472;-122.822;2023-05-25T12:04:57;10.60;99.90
6375;DHT22;35400;45.472;-122.822;2023-05-25T12:07:28;10.60;99.90
6375;DHT22;35400;45.472;-122.822;2023-05-25T12:10:12;10.60;99.90
6375;DHT22;35400;45.472;-122.822;2023-05-25T12:12:46;10.60;99.90
6375;DHT22;35400;45.472;-122.822;2023-05-25T12:15:15;10.50;99.90
6375;DHT22;35400;45.472;-122.822;2023-05-25T12:17:43;10.50;99.90
6375;DHT22;35400;45.472;-122.822;2023-05-25T12:20:12;10.50;99.90
6375;DHT22;35400;45.472;-122.822;2023-05-25T12:22:41;10.40;99.90
6375;DHT22;35400;45.472;-122.822;2023-05-25T12:25:09;10.40;99.90
6375;DHT22;35400;45.472;-122.822;2023-05-25T12:27:37;10.50;99.90
6375;DHT22;35400;45.472;-122.822;2023-05-25T12:30:07;10.40;99.90
6375;DHT22;35400;45.472;-122.822;2023-05-25T12:32:58;10.40;99.90
6375;DHT22;35400;45.472;-122.822;2023-05-25T12:35:26;10.40;99.90
6375;DHT22;35400;45.472;-122.822;2023-05-25T12:38:13;10.30;99.90
6375;DHT22;35400;45.472;-122.822;2023-05-25T12:40:41;10.10;99.90
6375;DHT22;35400;45.472;-122.822;2023-05-25T12:43:08;10.30;99.90
6375;DHT22;35400;45.472;-122.822;2023-05-25T12:45:40;10.30;99.90
6375;DHT22;35400;45.472;-122.822;2023-05-25T12:48:07;10.30;99.90
6375;DHT22;35400;45.472;-122.822;2023-05-25T12:50:34;10.30;99.90
6375;DHT22;35400;45.472;-122.822;2023-05-25T12:53:02;10.30;99.90
6375;DHT22;35400;45.472;-122.822;2023-05-25T12:55:31;10.30;99.90
6375;DHT22;35400;45.472;-122.822;2023-05-25T12:57:59;10.30;99.90
6375;DHT22;35400;45.472;-122.822;2023-05-25T13:00:31;10.30;99.90
6375;DHT22;35400;45.472;-122.822;2023-05-25T13:02:58;10.30;99.90
6375;DHT22;35400;45.472;-122.822;2023-05-25T13:05:32;9.90;99.90
6375;DHT22;35400;45.472;-122.822;2023-05-25T13:08:00;10.30;99.90
6375;DHT22;35400;45.472;-122.822;2023-05-25T13:10:31;10.30;99.90
6375;DHT22;35400;45.472;-122.822;2023-05-25T13:12:59;10.50;99.90
6375;DHT22;35400;45.472;-122.822;2023-05-25T13:15:26;10.60;99.90
6375;DHT22;35400;45.472;-122.822;2023-05-25T13:17:55;10.70;99.90
6375;DHT22;35400;45.472;-122.822;2023-05-25T13:20:24;10.70;99.90
6375;DHT22;35400;45.472;-122.822;2023-05-25T13:22:52;10.80;99.90
6375;DHT22;35400;45.472;-122.822;2023-05-25T13:25:21;10.50;99.90
6375;DHT22;35400;45.472;-122.822;2023-05-25T13:27:49;10.80;99.90
6375;DHT22;35400;45.472;-122.822;2023-05-25T13:30:17;11.20;99.90
6375;DHT22;35400;45.472;-122.822;2023-05-25T13:32:44;11.10;99.90
6375;DHT22;35400;45.472;-122.822;2023-05-25T13:35:11;11.10;99.90
6375;DHT22;35400;45.472;-122.822;2023-05-25T13:37:44;11.20;99.90
6375;DHT22;35400;45.472;-122.822;2023-05-25T13:40:11;11.30;99.90
6375;DHT22;35400;45.472;-122.822;2023-05-25T13:42:39;11.40;99.90
6375;DHT22;35400;45.472;-122.822;2023-05-25T13:45:06;11.50;99.90
6375;DHT22;35400;45.472;-122.822;2023-05-25T13:47:33;11.60;99.90
6375;DHT22;35400;45.472;-122.822;2023-05-25T13:50:00;11.70;99.90
6375;DHT22;35400;45.472;-122.822;2023-05-25T13:52:27;11.80;99.90
6375;DHT22;35400;45.472;-122.822;2023-05-25T13:54:53;12.00;99.90
6375;DHT22;35400;45.472;-122.822;2023-05-25T13:57:20;12.10;99.90
6375;DHT22;35400;45.472;-122.822;2023-05-25T13:59:47;12.20;99.90
6375;DHT22;35400;45.472;-122.822;2023-05-25T14:02:14;12.40;99.90
6375;DHT22;35400;45.472;-122.822;2023-05-25T14:04:41;12.50;99.90
6375;DHT22;35400;45.472;-122.822;2023-05-25T14:07:08;12.60;99.90
6375;DHT22;35400;45.472;-122.822;2023-05-25T14:09:35;12.80;99.90
6375;DHT22;35400;45.472;-122.822;2023-05-25T14:12:02;12.90;99.90
6375;DHT22;35400;45.472;-122.822;2023-05-25T14:14:29;13.00;99.90
6375;DHT22;35400;45.472;-122.822;2023-05-25T14:16:56;13.20;99.90
6375;DHT22;35400;45.472;-122.822;2023-05-25T14:19:22;13.30;99.90
6375;DHT22;35400;45.472;-122.822;2023-05-25T14:21:49;13.50;99.90
6375;DHT22;35400;45.472;-122.822;2023-05-25T14:24:16;13.60;99.90
6375;DHT22;35400;45.472;-122.822;2023-05-25T14:26:43;13.70;99.90
6375;DHT22;35400;45.472;-122.822;2023-05-25T14:29:09;13.90;99.90
6375;DHT22;35400;45.472;-122.822;2023-05-25T14:31:36;14.00;99.90
6375;DHT22;35400;45.472;-122.822;2023-05-25T14:34:03;14.10;99.90
6375;DHT22;35400;45.472;-122.822;2023-05-25T14:36:30;14.20;99.90
6375;DHT22;35400;45.472;-122.822;2023-05-25T14:38:57;14.40;99.90
6375;DHT22;35400;45.472;-122.822;2023-05-25T14:41:24;14.50;99.90
6375;DHT22;35400;45.472;-122.822;2023-05-25T14:43:51;14.20;99.90
6375;DHT22;35400;45.472;-122.822;2023-05-25T14:46:17;14.70;99.90
6375;DHT22;35400;45.472;-122.822;2023-05-25T14:48:44;14.80;99.90
6375;DHT22;35400;45.472;-122.822;2023-05-25T14:51:11;15.00;99.90
6375;DHT22;35400;45.472;-122.822;2023-05-25T14:53:38;15.20;99.90
6375;DHT22;35400;45.472;-122.822;2023-05-25T14:56:05;15.40;99.90
6375;DHT22;35400;45.472;-122.822;2023-05-25T14:58:32;15.60;99.90
6375;DHT22;35400;45.472;-122.822;2023-05-25T15:01:00;15.90;99.90
6375;DHT22;35400;45.472;-122.822;2023-05-25T15:03:27;16.30;99.90
6375;DHT22;35400;45.472;-122.822;2023-05-25T15:05:53;16.70;99.90
6375;DHT22;35400;45.472;-122.822;2023-05-25T15:08:20;16.90;99.90
6375;DHT22;35400;45.472;-122.822;2023-05-25T15:10:47;17.70;99.90
6375;DHT22;35400;45.472;-122.822;2023-05-25T15:13:14;18.60;99.90
6375;DHT22;35400;45.472;-122.822;2023-05-25T15:15:41;19.80;99.90
6375;DHT22;35400;45.472;-122.822;2023-05-25T15:18:07;20.80;99.90
6375;DHT22;35400;45.472;-122.822;2023-05-25T15:20:35;23.20;99.90
6375;DHT22;35400;45.472;-122.822;2023-05-25T15:23:01;23.60;99.90